• Join FlightAware (Why Join?)
  • Login
  • US Flag 
06:21PM EDT


 

Airport Tracker/Info


-or-


 

Live Flight TrackerFlight Track Log ✈ N5349M ✈ 24-Aug-2013 ✈ KJWN - 6A4

Flight Track Log - Related Links

Times and Time Zones

All times are in EDT time to prevent confusion due to time zone crossing. See the N5349M flight status page for this flight to view local times or setup timezone preferences in your user account.

Time Position Orientation Groundspeed Altitude Reporting Facility
EDT Latitude Longitude Course Direction KTS MPH feet Rate Location/Type
09:31AM 36.0667 -86.7500 85° East 130 150 5,700  Level Nashville TRACON
09:32AM 36.0667 -86.7167 90° East 131 151 6,200 420 Climbing Nashville TRACON
09:33AM 36.0833 -86.6667 68° East 136 157 6,600 420 Climbing Nashville TRACON
09:34AM 36.0833 -86.6167 90° East 141 162 7,100 360 Climbing Nashville TRACON
09:35AM 36.0833 -86.5667 90° East 147 169 7,400 240 Climbing Nashville TRACON
09:36AM 36.0833 -86.5167 90° East 154 177 7,600 60 Climbing Nashville TRACON
09:37AM 36.2105 -86.4598 85° East  Level Estimated
09:37AM 36.1000 -86.4667 68° East 158 182 7,600  Level Nashville TRACON
09:38AM 36.1000 -86.4167 90° East 157 181 7,600 -60 Level Nashville TRACON
09:39AM 36.1000 -86.3667 90° East 157 181 7,500 -60 Descending Nashville TRACON
09:40AM 36.1000 -86.3167 90° East 159 183 7,500  Level Nashville TRACON
09:41AM 36.1167 -86.2500 73° East 158 182 7,500  Level Nashville TRACON
09:42AM 36.1167 -86.2000 90° East 158 182 7,500  Level Nashville TRACON
09:43AM 36.1203 -86.1456 85° East 179 206 7,500 -60 Level Memphis Center
09:44AM 36.1269 -86.0939 81° East 174 200 7,400  Descending Memphis Center
09:45AM 36.1314 -86.0372 84° East 160 184 7,500  Climbing Memphis Center
09:46AM 36.1358 -85.9856 84° East 160 184 7,400  Descending Memphis Center
09:47AM 36.1400 -85.9314 85° East 160 184 7,500  Climbing Memphis Center
09:48AM 36.1444 -85.8772 84° East 160 184 7,400  Descending Memphis Center
09:49AM 36.1506 -85.8150 83° East 160 184 7,500  Climbing Memphis Center
09:50AM 36.1547 -85.7608 85° East 160 184 7,500  Level Memphis Center
09:51AM 36.1589 -85.7092 84° East 160 184 7,500  Level Memphis Center
09:52AM 36.1631 -85.6525 85° East 160 184 7,500  Level Memphis Center
09:54AM 36.1722 -85.5433 84° East 161 185 7,500  Level Atlanta Center
09:55AM 36.1769 -85.4894 84° East 161 185 7,500  Level Atlanta Center
09:56AM 36.1817 -85.4331 84° East 161 185 7,500  Level Atlanta Center
09:57AM 36.1867 -85.3792 83° East 161 185 7,500  Level Atlanta Center
09:58AM 36.1892 -85.3250 87° East 161 185 7,500  Level Atlanta Center
09:59AM 36.1939 -85.2711 84° East 161 185 7,500  Level Atlanta Center
10:00AM 36.1986 -85.2172 84° East 161 185 7,500  Level Atlanta Center
10:01AM 36.2014 -85.1631 86° East 161 185 7,500  Level Atlanta Center
10:02AM 36.2058 -85.1092 84° East 161 185 7,500  Level Atlanta Center
10:03AM 36.2083 -85.0578 87° East 161 185 7,500  Level Atlanta Center
10:04AM 36.2150 -85.0039 81° East 161 185 7,500  Level Atlanta Center
10:05AM 36.2175 -84.9497 87° East 161 185 7,500  Level Atlanta Center
10:06AM 36.2222 -84.8906 84° East 161 185 7,500  Level Atlanta Center
10:07AM 36.2289 -84.8367 81° East 161 185 7,500  Level Atlanta Center
10:08AM 36.2333 -84.7800 84° East 161 185 7,500  Level Atlanta Center
10:09AM 36.2358 -84.7261 87° East 161 185 7,500  Level Atlanta Center
10:10AM 36.2403 -84.6719 84° East 161 185 7,500  Level Atlanta Center
10:11AM 36.2447 -84.6153 84° East 161 185 7,500  Level Atlanta Center
10:12AM 36.2469 -84.5614 87° East 161 185 7,500  Level Atlanta Center
10:13AM 36.2514 -84.5072 84° East 161 185 7,600  Climbing Atlanta Center
10:14AM 36.2558 -84.4533 84° East 161 185 7,600  Level Atlanta Center
10:15AM 36.2600 -84.3967 85° East 161 185 7,600  Level Atlanta Center
10:16AM 36.2644 -84.3375 85° East 161 185 7,600  Level Atlanta Center
10:17AM 36.2686 -84.2833 85° East 161 185 7,600  Level Atlanta Center
10:18AM 36.2731 -84.2267 84° East 161 185 7,600  Level Atlanta Center
10:19AM 36.2772 -84.1725 85° East 161 185 7,600  Level Atlanta Center
10:21AM 36.2788 -84.1194 88° East  Level FlightAware Approximate
10:28AM 36.2890 -83.7651 88° East  Level FlightAware Approximate
10:29AM 36.2904 -83.7145 88° East  Level FlightAware Approximate
10:30AM 36.2917 -83.6639 88° East  Level FlightAware Approximate
10:31AM 36.2931 -83.6133 88° East  Level FlightAware Approximate
10:32AM 36.2944 -83.5627 88° East  Level FlightAware Approximate
10:33AM 36.2956 -83.5120 88° East  Level FlightAware Approximate
10:34AM 36.2969 -83.4614 88° East  Level FlightAware Approximate
10:35AM 36.2981 -83.4108 88° East  Level FlightAware Approximate
10:36AM 36.2994 -83.3602 88° East  Level FlightAware Approximate
10:37AM 36.3021 -83.3078 84° East  Level FlightAware Approximate
10:38AM 36.3061 -83.2574 84° East  Level FlightAware Approximate
10:39AM 36.3101 -83.2070 84° East  Level FlightAware Approximate
10:40AM 36.3141 -83.1566 84° East  Level FlightAware Approximate
10:41AM 36.3181 -83.1062 84° East  Level FlightAware Approximate
10:42AM 36.3220 -83.0557 84° East  Level FlightAware Approximate
10:43AM 36.3259 -83.0053 84° East  Level FlightAware Approximate
10:44AM 36.3298 -82.9549 84° East  Level FlightAware Approximate
10:45AM 36.3337 -82.9044 85° East  Level FlightAware Approximate
10:46AM 36.3376 -82.8540 85° East  Level FlightAware Approximate
10:47AM 36.3414 -82.8035 85° East  Level FlightAware Approximate
10:48AM 36.3452 -82.7531 85° East  Level FlightAware Approximate
10:49AM 36.3490 -82.7026 85° East  Level FlightAware Approximate
10:50AM 36.3528 -82.6521 85° East  Level FlightAware Approximate
10:51AM 36.3566 -82.6017 85° East  Level FlightAware Approximate
10:52AM 36.3603 -82.5512 85° East  Level FlightAware Approximate
10:53AM 36.3640 -82.5007 85° East  Level FlightAware Approximate
10:54AM 36.3677 -82.4502 85° East  Level FlightAware Approximate
10:55AM 36.3714 -82.3997 85° East  Level FlightAware Approximate
10:56AM 36.3750 -82.3493 85° East  Level FlightAware Approximate
10:57AM 36.3787 -82.2988 85° East  Level FlightAware Approximate
10:58AM 36.3823 -82.2483 85° East  Level FlightAware Approximate
10:59AM 36.3861 -82.1978 84° East  Level FlightAware Approximate
11:00AM 36.3900 -82.1473 84° East  Level FlightAware Approximate
11:01AM 36.3939 -82.0968 85° East  Level FlightAware Approximate
11:02AM 36.3977 -82.0463 85° East  Level FlightAware Approximate
11:03AM 36.4017 -81.9959 84° East  Level FlightAware Approximate
11:04AM 36.4060 -81.9454 84° East  Level FlightAware Approximate
11:05AM 36.4102 -81.8950 84° East  Level FlightAware Approximate